Time;durP1;ratioP1;P1;durP2;ratioP2;P2;SDS_P1;SDS_P2;PMS_P1;PMS_P2;Temp;Humidity;BMP_temperature;BMP_pressure;BME280_temperature;BME280_humidity;BME280_pressure;Samples;Min_cycle;Max_cycle;Signal;HPM_P1;HPM_P2
2022/02/23 00:06:40;;;;;;;51.20;23.80;;;;;;;6.60;100.00;99931.63;31191243;28;20140;-74
2022/02/23 00:21:42;;;;;;;46.20;23.00;;;;;;;6.54;100.00;99962.88;31207003;28;20129;-75
2022/02/23 00:36:44;;;;;;;42.80;17.10;;;;;;;6.44;100.00;99970.63;31182780;28;20568;-75
2022/02/23 00:51:49;;;;;;;41.63;18.67;;;;;;;6.49;100.00;99969.44;31188774;28;20053;-73
2022/02/23 01:06:51;;;;;;;37.17;17.60;;;;;;;6.60;100.00;99966.72;31188334;28;20415;-73
2022/02/23 01:21:53;;;;;;;44.33;18.40;;;;;;;6.64;100.00;99986.31;31220541;28;20508;-75
2022/02/23 01:36:55;;;;;;;38.47;18.00;;;;;;;6.59;100.00;100040.69;31215840;28;20057;-74
2022/02/23 01:51:57;;;;;;;57.80;20.73;;;;;;;6.53;100.00;100005.25;31216885;28;20116;-74
2022/02/23 02:06:59;;;;;;;64.90;23.73;;;;;;;6.47;100.00;100036.47;31204299;28;20045;-76
2022/02/23 02:22:04;;;;;;;82.40;28.83;;;;;;;6.42;100.00;100043.03;31179596;28;20042;-73
2022/02/23 02:37:08;;;;;;;87.33;29.50;;;;;;;6.34;100.00;100044.25;31212708;28;20159;-74
2022/02/23 02:52:10;;;;;;;79.87;28.10;;;;;;;6.23;100.00;100056.97;31192003;28;20408;-74
2022/02/23 03:07:11;;;;;;;60.73;24.47;;;;;;;6.09;100.00;100073.19;31181152;28;20050;-74
2022/02/23 03:22:13;;;;;;;52.47;19.13;;;;;;;6.04;100.00;100070.91;31185951;28;20405;-75
2022/02/23 03:37:15;;;;;;;36.00;16.40;;;;;;;6.04;100.00;100095.16;31220753;28;20129;-74
2022/02/23 03:52:17;;;;;;;37.83;15.23;;;;;;;5.92;100.00;100093.59;31203133;28;20374;-75
2022/02/23 04:07:19;;;;;;;31.30;13.67;;;;;;;5.86;100.00;100097.06;31189649;28;20061;-74
2022/02/23 04:22:21;;;;;;;29.37;13.30;;;;;;;5.79;100.00;100124.78;31198588;28;22130;-74
2022/02/23 04:37:28;;;;;;;31.27;13.83;;;;;;;5.58;100.00;100136.31;31213766;28;20046;-74
2022/02/23 04:52:30;;;;;;;26.43;12.57;;;;;;;5.54;100.00;100162.44;31229728;28;20048;-74
2022/02/23 05:07:33;;;;;;;26.43;12.87;;;;;;;5.45;100.00;100186.28;31209025;28;20056;-75
2022/02/23 05:22:34;;;;;;;24.67;11.77;;;;;;;5.32;100.00;100203.94;31240053;28;20059;-74
2022/02/23 05:37:38;;;;;;;27.80;11.67;;;;;;;5.38;100.00;100238.19;31225408;28;20053;-74
2022/02/23 05:52:42;;;;;;;20.70;10.03;;;;;;;6.32;100.00;100246.09;31200456;28;20054;-76
2022/02/23 06:07:46;;;;;;;22.07;9.43;;;;;;;7.44;89.46;100261.63;31206235;28;20053;-73
2022/02/23 06:22:50;;;;;;;17.90;8.73;;;;;;;8.61;81.21;100281.75;31191004;28;20050;-75
2022/02/23 06:37:54;;;;;;;15.47;8.30;;;;;;;9.90;70.51;100299.63;31217692;28;20095;-76
2022/02/23 06:52:59;;;;;;;15.90;7.40;;;;;;;10.52;65.13;100314.63;31245020;28;20061;-75
2022/02/23 07:08:05;;;;;;;19.30;8.17;;;;;;;11.53;62.98;100325.25;31209196;28;20052;-75
2022/02/23 07:23:07;;;;;;;17.30;8.20;;;;;;;12.04;56.33;100331.19;31185827;28;20099;-74
2022/02/23 07:38:10;;;;;;;16.07;8.00;;;;;;;12.95;52.84;100349.25;31205130;28;20493;-76
2022/02/23 07:53:14;;;;;;;14.60;8.63;;;;;;;13.12;52.92;100367.09;31213972;28;20059;-78
2022/02/23 08:08:19;;;;;;;14.43;7.23;;;;;;;14.07;49.34;100378.56;31207258;28;20063;-76
2022/02/23 08:23:21;;;;;;;17.03;8.97;;;;;;;14.43;49.21;100370.81;31234839;28;20107;-76
2022/02/23 08:38:25;;;;;;;13.93;8.47;;;;;;;15.05;46.85;100362.97;31223420;28;20049;-77
2022/02/23 08:53:29;;;;;;;13.77;7.93;;;;;;;15.45;43.59;100370.56;31231008;28;20053;-77
2022/02/23 09:08:32;;;;;;;14.53;8.97;;;;;;;15.83;43.30;100375.88;31218707;28;20140;-77
2022/02/23 09:23:35;;;;;;;17.97;8.47;;;;;;;15.94;42.64;100366.06;31223658;28;20054;-74
2022/02/23 09:38:38;;;;;;;12.67;7.37;;;;;;;15.27;43.74;100373.94;31227866;28;20111;-74
2022/02/23 09:53:45;;;;;;;8.80;5.47;;;;;;;15.76;41.79;100363.22;31226826;28;20065;-73
2022/02/23 10:08:57;;;;;;;10.30;5.07;;;;;;;15.61;43.63;100362.97;31203488;28;20057;-73
2022/02/23 10:24:25;;;;;;;6.43;3.60;;;;;;;16.22;38.06;100364.22;31225476;28;20062;-73
2022/02/23 10:39:54;;;;;;;7.40;4.37;;;;;;;16.86;37.13;100355.44;31231986;28;20051;-73
2022/02/23 10:55:13;;;;;;;6.43;4.10;;;;;;;16.95;36.73;100361.69;31230344;28;20088;-74
2022/02/23 11:10:16;;;;;;;7.03;4.00;;;;;;;17.28;35.97;100372.81;31189140;28;20050;-72
2022/02/23 11:25:18;;;;;;;7.97;5.50;;;;;;;16.65;37.22;100379.75;31213780;28;20059;-74
2022/02/23 11:40:24;;;;;;;10.10;6.00;;;;;;;16.52;38.20;100354.44;31218792;28;20726;-74
2022/02/23 12:11:13;;;;;;;8.23;5.72;;;;;;;17.61;35.01;100347.50;31211752;28;20052;-72
2022/02/23 12:26:18;;;;;;;10.07;4.78;;;;;;;18.14;33.12;100355.31;31210316;28;20053;-73
2022/02/23 12:41:22;;;;;;;9.95;4.60;;;;;;;14.97;37.17;100372.59;31169512;28;20055;-72
2022/02/23 12:56:31;;;;;;;5.23;3.17;;;;;;;12.42;41.17;100375.81;31163227;28;20096;-76
2022/02/23 13:11:40;;;;;;;5.30;3.20;;;;;;;11.85;42.24;100398.03;31225013;28;20052;-73
2022/02/23 13:26:47;;;;;;;5.47;3.50;;;;;;;11.54;42.10;100402.91;31211883;28;20073;-73
2022/02/23 13:42:09;;;;;;;4.30;3.13;;;;;;;11.12;43.61;100402.47;31237950;28;20485;-72
2022/02/23 13:57:14;;;;;;;7.27;3.50;;;;;;;10.95;46.31;100411.69;31221279;28;20064;-73
2022/02/23 14:12:32;;;;;;;10.00;5.47;;;;;;;10.82;45.99;100421.59;31217737;28;20413;-73
2022/02/23 14:27:38;;;;;;;11.07;5.10;;;;;;;10.61;46.53;100443.66;31230897;28;20405;-74
2022/02/23 14:42:59;;;;;;;18.10;5.13;;;;;;;10.42;47.30;100440.38;31215212;28;20087;-73
2022/02/23 14:58:01;;;;;;;9.97;4.33;;;;;;;9.98;47.70;100463.00;31211997;28;20045;-73
2022/02/23 15:13:04;;;;;;;7.60;3.93;;;;;;;9.67;48.38;100475.75;31201960;28;20060;-73
2022/02/23 15:28:07;;;;;;;13.80;4.77;;;;;;;9.37;49.08;100483.78;31208563;28;20064;-73
2022/02/23 15:43:10;;;;;;;8.00;4.67;;;;;;;9.24;49.24;100503.22;31203981;28;20054;-73
2022/02/23 15:58:12;;;;;;;12.57;4.90;;;;;;;9.19;50.53;100529.97;31203218;28;20046;-74
2022/02/23 16:13:14;;;;;;;12.77;5.70;;;;;;;9.11;50.67;100537.38;31241342;28;20050;-76
2022/02/23 16:28:16;;;;;;;16.90;8.03;;;;;;;8.81;51.84;100539.88;31225250;28;20053;-74
2022/02/23 16:43:18;;;;;;;23.70;11.50;;;;;;;8.61;52.98;100549.66;31220041;28;20482;-75
2022/02/23 16:58:20;;;;;;;22.77;11.97;;;;;;;8.59;53.46;100571.69;31245694;28;20053;-74
2022/02/23 17:13:22;;;;;;;19.07;9.13;;;;;;;8.43;53.92;100591.09;31233481;28;20057;-74
2022/02/23 17:28:25;;;;;;;20.90;8.50;;;;;;;8.33;54.47;100602.69;31189099;28;20057;-72
2022/02/23 17:43:27;;;;;;;12.60;6.40;;;;;;;8.13;55.16;100618.56;31208458;28;20581;-75
2022/02/23 17:58:29;;;;;;;15.37;6.60;;;;;;;8.08;56.03;100628.97;31212346;28;20049;-76
2022/02/23 18:13:32;;;;;;;11.57;5.87;;;;;;;8.02;56.87;100636.75;31190683;28;20046;-75
2022/02/23 18:28:40;;;;;;;14.07;6.77;;;;;;;7.86;59.16;100639.81;31208598;28;20584;-75
2022/02/23 18:43:42;;;;;;;23.80;10.33;;;;;;;7.93;57.94;100652.56;31224107;28;20141;-74
2022/02/23 18:58:46;;;;;;;50.03;23.63;;;;;;;7.90;57.95;100660.66;31190983;28;20107;-75
2022/02/23 19:13:51;;;;;;;22.83;10.03;;;;;;;7.34;59.13;100681.03;31199747;28;20085;-76
2022/02/23 19:28:53;;;;;;;17.77;7.10;;;;;;;6.98;60.34;100701.75;31205344;28;20064;-76
2022/02/23 19:43:55;;;;;;;17.00;8.20;;;;;;;6.64;63.66;100714.66;31205631;28;20424;-76
2022/02/23 19:58:57;;;;;;;22.20;8.70;;;;;;;6.29;65.32;100716.00;31234508;28;20049;-75
2022/02/23 20:14:00;;;;;;;29.47;10.90;;;;;;;6.02;67.68;100726.16;31211562;28;20053;-74
2022/02/23 20:29:03;;;;;;;27.87;11.93;;;;;;;5.93;68.76;100716.81;31237520;28;20051;-75
2022/02/23 20:44:07;;;;;;;27.90;11.57;;;;;;;5.89;69.81;100716.03;31214447;28;20053;-74
2022/02/23 20:59:09;;;;;;;25.90;11.47;;;;;;;6.03;69.38;100726.94;31226154;28;20103;-75
2022/02/23 21:14:11;;;;;;;27.40;11.10;;;;;;;5.93;69.82;100727.59;31221568;28;20054;-76
2022/02/23 21:29:13;;;;;;;22.57;10.50;;;;;;;5.83;70.82;100720.97;31233957;28;20057;-75
2022/02/23 21:44:16;;;;;;;18.13;10.00;;;;;;;5.78;71.34;100743.63;31221187;28;20152;-76
2022/02/23 21:59:18;;;;;;;21.93;11.57;;;;;;;5.58;73.07;100750.34;31204844;28;20057;-73
2022/02/23 22:14:20;;;;;;;22.07;12.07;;;;;;;5.43;74.24;100754.03;31201461;28;20060;-74
2022/02/23 22:29:22;;;;;;;29.57;13.60;;;;;;;5.33;74.92;100760.81;31197327;28;20132;-74
2022/02/23 22:44:24;;;;;;;29.10;13.30;;;;;;;5.25;75.61;100763.78;31201450;28;20084;-73
2022/02/23 22:59:26;;;;;;;27.83;13.03;;;;;;;5.06;76.86;100784.31;31232643;28;20053;-76
2022/02/23 23:14:28;;;;;;;27.07;13.40;;;;;;;4.83;77.69;100797.06;31162454;28;20056;-75
2022/02/23 23:29:30;;;;;;;33.67;13.80;;;;;;;4.65;79.12;100790.63;31190439;28;20088;-75
2022/02/23 23:44:33;;;;;;;32.93;12.53;;;;;;;4.80;78.57;100793.16;31196206;28;20085;-74
2022/02/23 23:59:37;;;;;;;26.70;13.13;;;;;;;4.76;78.02;100791.56;31191422;28;20451;-74
